sensor_id;sensor_type;location;lat;lon;timestamp;P1;durP1;ratioP1;P2;durP2;ratioP2
27889;SDS011;15238;49.082;9.102;2023-12-20T00:01:31;14.30;;;7.97;;
27889;SDS011;15238;49.082;9.102;2023-12-20T00:03:32;12.63;;;8.90;;
27889;SDS011;15238;49.082;9.102;2023-12-20T00:05:32;11.93;;;7.45;;
27889;SDS011;15238;49.082;9.102;2023-12-20T00:07:33;13.68;;;8.52;;
27889;SDS011;15238;49.082;9.102;2023-12-20T00:09:34;11.93;;;7.60;;
27889;SDS011;15238;49.082;9.102;2023-12-20T00:11:34;12.23;;;6.00;;
27889;SDS011;15238;49.082;9.102;2023-12-20T00:13:35;8.85;;;6.18;;
27889;SDS011;15238;49.082;9.102;2023-12-20T00:15:35;9.77;;;6.05;;
27889;SDS011;15238;49.082;9.102;2023-12-20T00:17:36;9.82;;;5.97;;
27889;SDS011;15238;49.082;9.102;2023-12-20T00:19:36;8.70;;;5.72;;
27889;SDS011;15238;49.082;9.102;2023-12-20T00:21:37;10.18;;;5.97;;
27889;SDS011;15238;49.082;9.102;2023-12-20T00:23:37;9.75;;;6.25;;
27889;SDS011;15238;49.082;9.102;2023-12-20T00:25:38;8.30;;;6.00;;
27889;SDS011;15238;49.082;9.102;2023-12-20T00:27:38;10.07;;;6.65;;
27889;SDS011;15238;49.082;9.102;2023-12-20T00:29:39;10.18;;;6.55;;
27889;SDS011;15238;49.082;9.102;2023-12-20T00:31:40;11.70;;;7.57;;
27889;SDS011;15238;49.082;9.102;2023-12-20T00:33:40;11.30;;;7.10;;
27889;SDS011;15238;49.082;9.102;2023-12-20T00:35:43;9.68;;;6.05;;
27889;SDS011;15238;49.082;9.102;2023-12-20T00:37:44;9.20;;;5.75;;
27889;SDS011;15238;49.082;9.102;2023-12-20T00:39:44;8.40;;;5.95;;
27889;SDS011;15238;49.082;9.102;2023-12-20T00:41:45;7.35;;;4.63;;
27889;SDS011;15238;49.082;9.102;2023-12-20T00:43:45;4.10;;;3.00;;
27889;SDS011;15238;49.082;9.102;2023-12-20T00:45:46;4.57;;;2.25;;
27889;SDS011;15238;49.082;9.102;2023-12-20T00:47:46;3.20;;;1.85;;
27889;SDS011;15238;49.082;9.102;2023-12-20T00:49:47;4.25;;;2.00;;
27889;SDS011;15238;49.082;9.102;2023-12-20T00:51:47;5.97;;;2.00;;
27889;SDS011;15238;49.082;9.102;2023-12-20T00:53:50;3.53;;;1.85;;
27889;SDS011;15238;49.082;9.102;2023-12-20T00:55:54;3.65;;;2.20;;
27889;SDS011;15238;49.082;9.102;2023-12-20T00:57:55;4.25;;;2.17;;
27889;SDS011;15238;49.082;9.102;2023-12-20T00:59:55;3.40;;;2.22;;
27889;SDS011;15238;49.082;9.102;2023-12-20T01:01:56;4.20;;;2.63;;
27889;SDS011;15238;49.082;9.102;2023-12-20T01:03:56;2.88;;;2.10;;
27889;SDS011;15238;49.082;9.102;2023-12-20T01:05:57;3.58;;;2.35;;
27889;SDS011;15238;49.082;9.102;2023-12-20T01:07:57;5.10;;;2.92;;
27889;SDS011;15238;49.082;9.102;2023-12-20T01:09:58;3.45;;;2.63;;
27889;SDS011;15238;49.082;9.102;2023-12-20T01:11:58;5.03;;;2.63;;
27889;SDS011;15238;49.082;9.102;2023-12-20T01:13:59;3.90;;;2.65;;
27889;SDS011;15238;49.082;9.102;2023-12-20T01:15:59;3.05;;;2.35;;
27889;SDS011;15238;49.082;9.102;2023-12-20T01:18:00;4.18;;;2.63;;
27889;SDS011;15238;49.082;9.102;2023-12-20T01:20:00;4.22;;;2.80;;
27889;SDS011;15238;49.082;9.102;2023-12-20T01:22:01;4.43;;;3.10;;
27889;SDS011;15238;49.082;9.102;2023-12-20T01:24:01;4.22;;;3.10;;
27889;SDS011;15238;49.082;9.102;2023-12-20T01:26:02;4.45;;;3.20;;
27889;SDS011;15238;49.082;9.102;2023-12-20T01:28:04;4.50;;;2.78;;
27889;SDS011;15238;49.082;9.102;2023-12-20T01:30:05;4.78;;;3.13;;
27889;SDS011;15238;49.082;9.102;2023-12-20T01:32:06;3.25;;;2.42;;
27889;SDS011;15238;49.082;9.102;2023-12-20T01:34:07;5.78;;;2.80;;
27889;SDS011;15238;49.082;9.102;2023-12-20T01:36:07;4.68;;;2.50;;
27889;SDS011;15238;49.082;9.102;2023-12-20T01:38:08;3.03;;;2.40;;
27889;SDS011;15238;49.082;9.102;2023-12-20T01:40:09;2.92;;;2.25;;
27889;SDS011;15238;49.082;9.102;2023-12-20T01:42:10;4.07;;;2.38;;
27889;SDS011;15238;49.082;9.102;2023-12-20T01:44:10;3.03;;;2.40;;
27889;SDS011;15238;49.082;9.102;2023-12-20T01:46:11;2.67;;;2.08;;
27889;SDS011;15238;49.082;9.102;2023-12-20T01:48:12;3.60;;;2.13;;
27889;SDS011;15238;49.082;9.102;2023-12-20T01:50:14;2.50;;;1.92;;
27889;SDS011;15238;49.082;9.102;2023-12-20T01:52:15;2.35;;;1.52;;
27889;SDS011;15238;49.082;9.102;2023-12-20T01:54:17;1.95;;;1.60;;
27889;SDS011;15238;49.082;9.102;2023-12-20T01:56:20;2.83;;;1.98;;
27889;SDS011;15238;49.082;9.102;2023-12-20T01:58:21;2.67;;;1.60;;
27889;SDS011;15238;49.082;9.102;2023-12-20T02:00:23;2.05;;;1.52;;
27889;SDS011;15238;49.082;9.102;2023-12-20T02:02:24;2.40;;;1.90;;
27889;SDS011;15238;49.082;9.102;2023-12-20T02:04:26;3.17;;;2.13;;
27889;SDS011;15238;49.082;9.102;2023-12-20T02:06:29;2.20;;;1.55;;
27889;SDS011;15238;49.082;9.102;2023-12-20T02:08:31;2.35;;;1.50;;
27889;SDS011;15238;49.082;9.102;2023-12-20T02:10:31;2.67;;;1.77;;
27889;SDS011;15238;49.082;9.102;2023-12-20T02:12:32;1.65;;;1.38;;
27889;SDS011;15238;49.082;9.102;2023-12-20T02:14:32;3.10;;;1.45;;
27889;SDS011;15238;49.082;9.102;2023-12-20T02:16:33;1.65;;;1.20;;
27889;SDS011;15238;49.082;9.102;2023-12-20T02:18:33;1.75;;;1.02;;
27889;SDS011;15238;49.082;9.102;2023-12-20T02:20:34;2.47;;;1.10;;
27889;SDS011;15238;49.082;9.102;2023-12-20T02:22:34;2.13;;;1.17;;
27889;SDS011;15238;49.082;9.102;2023-12-20T02:24:35;1.80;;;1.23;;
27889;SDS011;15238;49.082;9.102;2023-12-20T02:26:36;2.75;;;1.05;;
27889;SDS011;15238;49.082;9.102;2023-12-20T02:28:36;1.40;;;1.08;;
27889;SDS011;15238;49.082;9.102;2023-12-20T02:30:37;2.47;;;0.75;;
27889;SDS011;15238;49.082;9.102;2023-12-20T02:32:38;1.13;;;0.80;;
27889;SDS011;15238;49.082;9.102;2023-12-20T02:34:38;1.58;;;0.90;;
27889;SDS011;15238;49.082;9.102;2023-12-20T02:36:39;1.02;;;0.93;;
27889;SDS011;15238;49.082;9.102;2023-12-20T02:38:39;1.50;;;0.90;;
27889;SDS011;15238;49.082;9.102;2023-12-20T02:40:39;0.88;;;0.75;;
27889;SDS011;15238;49.082;9.102;2023-12-20T02:42:40;1.23;;;0.98;;
27889;SDS011;15238;49.082;9.102;2023-12-20T02:44:40;1.48;;;1.05;;
27889;SDS011;15238;49.082;9.102;2023-12-20T02:46:41;1.70;;;1.00;;
27889;SDS011;15238;49.082;9.102;2023-12-20T02:48:41;1.20;;;0.90;;
27889;SDS011;15238;49.082;9.102;2023-12-20T02:50:42;1.42;;;0.88;;
27889;SDS011;15238;49.082;9.102;2023-12-20T02:52:44;1.95;;;0.82;;
27889;SDS011;15238;49.082;9.102;2023-12-20T02:54:45;1.30;;;0.98;;
27889;SDS011;15238;49.082;9.102;2023-12-20T02:56:45;1.02;;;0.70;;
27889;SDS011;15238;49.082;9.102;2023-12-20T02:58:46;1.13;;;0.75;;
27889;SDS011;15238;49.082;9.102;2023-12-20T03:00:46;1.83;;;0.90;;
27889;SDS011;15238;49.082;9.102;2023-12-20T03:02:47;1.75;;;1.20;;
27889;SDS011;15238;49.082;9.102;2023-12-20T03:04:47;1.30;;;0.95;;
27889;SDS011;15238;49.082;9.102;2023-12-20T03:06:48;1.42;;;0.60;;
27889;SDS011;15238;49.082;9.102;2023-12-20T03:08:48;1.38;;;1.05;;
27889;SDS011;15238;49.082;9.102;2023-12-20T03:10:49;0.85;;;0.70;;
27889;SDS011;15238;49.082;9.102;2023-12-20T03:12:50;0.90;;;0.60;;
27889;SDS011;15238;49.082;9.102;2023-12-20T03:14:50;1.25;;;0.65;;
27889;SDS011;15238;49.082;9.102;2023-12-20T03:16:51;1.63;;;0.80;;
27889;SDS011;15238;49.082;9.102;2023-12-20T03:18:51;1.83;;;0.80;;
27889;SDS011;15238;49.082;9.102;2023-12-20T03:20:52;1.25;;;0.82;;
27889;SDS011;15238;49.082;9.102;2023-12-20T03:22:52;1.98;;;0.75;;
27889;SDS011;15238;49.082;9.102;2023-12-20T03:24:53;3.03;;;0.98;;
27889;SDS011;15238;49.082;9.102;2023-12-20T03:26:54;1.70;;;0.95;;
27889;SDS011;15238;49.082;9.102;2023-12-20T03:28:54;1.20;;;0.70;;
27889;SDS011;15238;49.082;9.102;2023-12-20T03:30:54;0.90;;;0.80;;
27889;SDS011;15238;49.082;9.102;2023-12-20T03:32:55;2.45;;;0.80;;
27889;SDS011;15238;49.082;9.102;2023-12-20T03:34:55;1.45;;;0.90;;
27889;SDS011;15238;49.082;9.102;2023-12-20T03:36:56;2.40;;;1.00;;
27889;SDS011;15238;49.082;9.102;2023-12-20T03:38:56;1.17;;;0.90;;
27889;SDS011;15238;49.082;9.102;2023-12-20T03:40:57;1.88;;;1.20;;
27889;SDS011;15238;49.082;9.102;2023-12-20T03:42:57;1.00;;;0.70;;
27889;SDS011;15238;49.082;9.102;2023-12-20T03:44:58;1.42;;;0.85;;
27889;SDS011;15238;49.082;9.102;2023-12-20T03:46:58;1.10;;;1.00;;
27889;SDS011;15238;49.082;9.102;2023-12-20T03:48:59;1.88;;;0.90;;
27889;SDS011;15238;49.082;9.102;2023-12-20T03:50:59;0.90;;;0.65;;
27889;SDS011;15238;49.082;9.102;2023-12-20T03:53:00;1.35;;;0.80;;
27889;SDS011;15238;49.082;9.102;2023-12-20T03:55:00;0.57;;;0.57;;
27889;SDS011;15238;49.082;9.102;2023-12-20T03:57:01;1.10;;;0.95;;
27889;SDS011;15238;49.082;9.102;2023-12-20T03:59:01;1.10;;;0.85;;
27889;SDS011;15238;49.082;9.102;2023-12-20T04:01:02;1.50;;;0.90;;
27889;SDS011;15238;49.082;9.102;2023-12-20T04:03:03;2.00;;;0.80;;
27889;SDS011;15238;49.082;9.102;2023-12-20T04:05:04;1.00;;;0.77;;
27889;SDS011;15238;49.082;9.102;2023-12-20T04:07:05;7.20;;;0.90;;
27889;SDS011;15238;49.082;9.102;2023-12-20T04:09:05;2.65;;;0.80;;
27889;SDS011;15238;49.082;9.102;2023-12-20T04:11:06;1.40;;;0.90;;
27889;SDS011;15238;49.082;9.102;2023-12-20T04:13:06;1.40;;;0.85;;
27889;SDS011;15238;49.082;9.102;2023-12-20T04:15:07;1.35;;;1.00;;
27889;SDS011;15238;49.082;9.102;2023-12-20T04:17:09;1.10;;;1.00;;
27889;SDS011;15238;49.082;9.102;2023-12-20T04:19:09;0.90;;;0.70;;
27889;SDS011;15238;49.082;9.102;2023-12-20T04:21:10;1.55;;;0.77;;
27889;SDS011;15238;49.082;9.102;2023-12-20T04:23:10;2.13;;;0.90;;
27889;SDS011;15238;49.082;9.102;2023-12-20T04:25:11;1.30;;;0.70;;
27889;SDS011;15238;49.082;9.102;2023-12-20T04:27:11;1.42;;;0.77;;
27889;SDS011;15238;49.082;9.102;2023-12-20T04:29:12;2.05;;;1.00;;
27889;SDS011;15238;49.082;9.102;2023-12-20T04:31:12;1.05;;;0.85;;
27889;SDS011;15238;49.082;9.102;2023-12-20T04:33:13;1.38;;;1.00;;
27889;SDS011;15238;49.082;9.102;2023-12-20T04:35:14;2.25;;;1.05;;
27889;SDS011;15238;49.082;9.102;2023-12-20T04:37:14;1.00;;;0.90;;
27889;SDS011;15238;49.082;9.102;2023-12-20T04:39:15;1.40;;;1.20;;
27889;SDS011;15238;49.082;9.102;2023-12-20T04:41:16;1.90;;;1.00;;
27889;SDS011;15238;49.082;9.102;2023-12-20T04:43:18;1.40;;;1.00;;
27889;SDS011;15238;49.082;9.102;2023-12-20T04:45:19;1.50;;;0.98;;
27889;SDS011;15238;49.082;9.102;2023-12-20T04:47:20;1.40;;;1.23;;
27889;SDS011;15238;49.082;9.102;2023-12-20T04:49:20;1.65;;;1.10;;
27889;SDS011;15238;49.082;9.102;2023-12-20T04:51:20;1.85;;;1.05;;
27889;SDS011;15238;49.082;9.102;2023-12-20T04:53:21;1.60;;;1.15;;
27889;SDS011;15238;49.082;9.102;2023-12-20T04:55:23;2.40;;;1.17;;
27889;SDS011;15238;49.082;9.102;2023-12-20T04:57:23;1.83;;;1.15;;
27889;SDS011;15238;49.082;9.102;2023-12-20T04:59:24;1.70;;;1.40;;
27889;SDS011;15238;49.082;9.102;2023-12-20T05:01:24;1.98;;;1.25;;
27889;SDS011;15238;49.082;9.102;2023-12-20T05:03:24;1.63;;;1.20;;
27889;SDS011;15238;49.082;9.102;2023-12-20T05:05:25;2.70;;;1.88;;
27889;SDS011;15238;49.082;9.102;2023-12-20T05:07:25;2.22;;;1.48;;
27889;SDS011;15238;49.082;9.102;2023-12-20T05:09:26;1.90;;;1.70;;
27889;SDS011;15238;49.082;9.102;2023-12-20T05:11:26;2.28;;;1.50;;
27889;SDS011;15238;49.082;9.102;2023-12-20T05:13:27;2.10;;;1.90;;
27889;SDS011;15238;49.082;9.102;2023-12-20T05:15:27;2.17;;;1.75;;
27889;SDS011;15238;49.082;9.102;2023-12-20T05:17:28;2.65;;;1.90;;
27889;SDS011;15238;49.082;9.102;2023-12-20T05:19:28;2.15;;;1.85;;
27889;SDS011;15238;49.082;9.102;2023-12-20T05:21:29;5.00;;;1.90;;
27889;SDS011;15238;49.082;9.102;2023-12-20T05:23:30;2.85;;;2.22;;
27889;SDS011;15238;49.082;9.102;2023-12-20T05:25:31;3.30;;;1.90;;
27889;SDS011;15238;49.082;9.102;2023-12-20T05:27:32;2.72;;;2.40;;
27889;SDS011;15238;49.082;9.102;2023-12-20T05:29:32;2.45;;;2.10;;
27889;SDS011;15238;49.082;9.102;2023-12-20T05:31:33;2.20;;;1.83;;
27889;SDS011;15238;49.082;9.102;2023-12-20T05:33:33;5.35;;;2.00;;
27889;SDS011;15238;49.082;9.102;2023-12-20T05:35:34;2.10;;;1.90;;
27889;SDS011;15238;49.082;9.102;2023-12-20T05:37:34;2.22;;;1.77;;
27889;SDS011;15238;49.082;9.102;2023-12-20T05:39:35;2.80;;;2.22;;
27889;SDS011;15238;49.082;9.102;2023-12-20T05:41:35;2.25;;;1.60;;
27889;SDS011;15238;49.082;9.102;2023-12-20T05:43:36;3.35;;;2.22;;
27889;SDS011;15238;49.082;9.102;2023-12-20T05:45:36;2.00;;;1.80;;
27889;SDS011;15238;49.082;9.102;2023-12-20T05:47:37;1.98;;;1.70;;
27889;SDS011;15238;49.082;9.102;2023-12-20T05:49:37;2.35;;;1.90;;
27889;SDS011;15238;49.082;9.102;2023-12-20T05:51:38;2.05;;;1.50;;
27889;SDS011;15238;49.082;9.102;2023-12-20T05:53:38;2.33;;;1.95;;
27889;SDS011;15238;49.082;9.102;2023-12-20T05:55:39;3.10;;;2.28;;
27889;SDS011;15238;49.082;9.102;2023-12-20T05:57:40;4.20;;;1.75;;
27889;SDS011;15238;49.082;9.102;2023-12-20T05:59:40;2.83;;;2.25;;
27889;SDS011;15238;49.082;9.102;2023-12-20T06:01:41;3.67;;;2.00;;
27889;SDS011;15238;49.082;9.102;2023-12-20T06:03:42;2.67;;;2.38;;
27889;SDS011;15238;49.082;9.102;2023-12-20T06:05:43;3.45;;;2.60;;
27889;SDS011;15238;49.082;9.102;2023-12-20T06:07:43;4.47;;;3.00;;
27889;SDS011;15238;49.082;9.102;2023-12-20T06:09:44;3.17;;;2.65;;
27889;SDS011;15238;49.082;9.102;2023-12-20T06:11:45;4.10;;;2.85;;
27889;SDS011;15238;49.082;9.102;2023-12-20T06:13:46;4.45;;;3.00;;
27889;SDS011;15238;49.082;9.102;2023-12-20T06:15:46;5.65;;;3.65;;
27889;SDS011;15238;49.082;9.102;2023-12-20T06:17:47;3.10;;;2.78;;
27889;SDS011;15238;49.082;9.102;2023-12-20T06:19:47;4.03;;;3.22;;
27889;SDS011;15238;49.082;9.102;2023-12-20T06:21:48;4.22;;;3.40;;
27889;SDS011;15238;49.082;9.102;2023-12-20T06:23:48;4.28;;;3.50;;
27889;SDS011;15238;49.082;9.102;2023-12-20T06:25:49;4.00;;;3.40;;
27889;SDS011;15238;49.082;9.102;2023-12-20T06:27:49;7.90;;;3.80;;
27889;SDS011;15238;49.082;9.102;2023-12-20T06:29:50;7.65;;;4.13;;
27889;SDS011;15238;49.082;9.102;2023-12-20T06:31:51;5.45;;;3.83;;
27889;SDS011;15238;49.082;9.102;2023-12-20T06:33:51;7.05;;;4.10;;
27889;SDS011;15238;49.082;9.102;2023-12-20T06:35:57;5.35;;;4.20;;
27889;SDS011;15238;49.082;9.102;2023-12-20T06:37:58;6.00;;;4.30;;
27889;SDS011;15238;49.082;9.102;2023-12-20T06:39:58;5.72;;;4.70;;
27889;SDS011;15238;49.082;9.102;2023-12-20T06:41:59;5.57;;;4.43;;
27889;SDS011;15238;49.082;9.102;2023-12-20T06:43:59;8.68;;;4.97;;
27889;SDS011;15238;49.082;9.102;2023-12-20T06:46:00;5.90;;;4.60;;
27889;SDS011;15238;49.082;9.102;2023-12-20T06:48:01;6.30;;;4.38;;
27889;SDS011;15238;49.082;9.102;2023-12-20T06:50:01;5.55;;;4.40;;
27889;SDS011;15238;49.082;9.102;2023-12-20T06:52:02;5.88;;;4.63;;
27889;SDS011;15238;49.082;9.102;2023-12-20T06:54:03;6.75;;;5.10;;
27889;SDS011;15238;49.082;9.102;2023-12-20T06:56:04;6.47;;;4.90;;
27889;SDS011;15238;49.082;9.102;2023-12-20T06:58:04;6.70;;;4.53;;
27889;SDS011;15238;49.082;9.102;2023-12-20T07:00:05;8.52;;;4.78;;
27889;SDS011;15238;49.082;9.102;2023-12-20T07:02:06;6.55;;;4.65;;
27889;SDS011;15238;49.082;9.102;2023-12-20T07:04:06;5.10;;;4.40;;
27889;SDS011;15238;49.082;9.102;2023-12-20T07:06:08;6.18;;;4.47;;
27889;SDS011;15238;49.082;9.102;2023-12-20T07:08:09;5.13;;;4.20;;
27889;SDS011;15238;49.082;9.102;2023-12-20T07:10:10;5.03;;;3.97;;
27889;SDS011;15238;49.082;9.102;2023-12-20T07:12:11;5.43;;;4.57;;
27889;SDS011;15238;49.082;9.102;2023-12-20T07:14:12;5.10;;;4.05;;
27889;SDS011;15238;49.082;9.102;2023-12-20T07:16:12;6.18;;;4.70;;
27889;SDS011;15238;49.082;9.102;2023-12-20T07:18:13;4.95;;;4.22;;
27889;SDS011;15238;49.082;9.102;2023-12-20T07:20:13;5.88;;;4.40;;
27889;SDS011;15238;49.082;9.102;2023-12-20T07:22:14;6.10;;;4.45;;
27889;SDS011;15238;49.082;9.102;2023-12-20T07:24:14;5.03;;;4.25;;
27889;SDS011;15238;49.082;9.102;2023-12-20T07:26:15;6.25;;;4.55;;
27889;SDS011;15238;49.082;9.102;2023-12-20T07:28:16;4.93;;;3.97;;
27889;SDS011;15238;49.082;9.102;2023-12-20T07:30:17;5.50;;;4.10;;
27889;SDS011;15238;49.082;9.102;2023-12-20T07:32:17;7.40;;;4.55;;
27889;SDS011;15238;49.082;9.102;2023-12-20T07:34:18;9.38;;;4.28;;
27889;SDS011;15238;49.082;9.102;2023-12-20T07:36:19;5.18;;;3.92;;
27889;SDS011;15238;49.082;9.102;2023-12-20T07:38:21;5.53;;;4.55;;
27889;SDS011;15238;49.082;9.102;2023-12-20T07:40:21;5.15;;;3.83;;
27889;SDS011;15238;49.082;9.102;2023-12-20T07:42:23;4.65;;;3.20;;
27889;SDS011;15238;49.082;9.102;2023-12-20T07:44:24;4.43;;;3.72;;
27889;SDS011;15238;49.082;9.102;2023-12-20T07:46:24;3.95;;;3.30;;
27889;SDS011;15238;49.082;9.102;2023-12-20T07:48:25;4.47;;;3.70;;
27889;SDS011;15238;49.082;9.102;2023-12-20T07:50:25;4.15;;;3.03;;
27889;SDS011;15238;49.082;9.102;2023-12-20T07:52:26;8.77;;;4.32;;
27889;SDS011;15238;49.082;9.102;2023-12-20T07:54:27;4.03;;;2.92;;
27889;SDS011;15238;49.082;9.102;2023-12-20T07:56:27;3.97;;;3.45;;
27889;SDS011;15238;49.082;9.102;2023-12-20T07:58:27;3.83;;;3.28;;
27889;SDS011;15238;49.082;9.102;2023-12-20T08:00:30;5.07;;;3.70;;
27889;SDS011;15238;49.082;9.102;2023-12-20T08:02:30;3.72;;;2.95;;
27889;SDS011;15238;49.082;9.102;2023-12-20T08:04:31;4.78;;;3.28;;
27889;SDS011;15238;49.082;9.102;2023-12-20T08:06:32;3.88;;;3.08;;
27889;SDS011;15238;49.082;9.102;2023-12-20T08:08:33;3.40;;;2.97;;
27889;SDS011;15238;49.082;9.102;2023-12-20T08:10:33;3.03;;;2.60;;
27889;SDS011;15238;49.082;9.102;2023-12-20T08:12:35;3.65;;;2.90;;
27889;SDS011;15238;49.082;9.102;2023-12-20T08:14:35;4.32;;;2.83;;
27889;SDS011;15238;49.082;9.102;2023-12-20T08:16:36;4.80;;;2.90;;
27889;SDS011;15238;49.082;9.102;2023-12-20T08:18:36;2.63;;;2.05;;
27889;SDS011;15238;49.082;9.102;2023-12-20T08:20:37;4.93;;;2.10;;
27889;SDS011;15238;49.082;9.102;2023-12-20T08:22:37;2.50;;;2.00;;
27889;SDS011;15238;49.082;9.102;2023-12-20T08:24:38;3.63;;;2.53;;
27889;SDS011;15238;49.082;9.102;2023-12-20T08:26:38;4.93;;;2.33;;
27889;SDS011;15238;49.082;9.102;2023-12-20T08:28:39;3.53;;;1.95;;
27889;SDS011;15238;49.082;9.102;2023-12-20T08:30:39;3.50;;;2.08;;
27889;SDS011;15238;49.082;9.102;2023-12-20T08:32:40;3.97;;;2.28;;
27889;SDS011;15238;49.082;9.102;2023-12-20T08:34:40;4.28;;;1.52;;
27889;SDS011;15238;49.082;9.102;2023-12-20T08:36:41;1.45;;;1.30;;
27889;SDS011;15238;49.082;9.102;2023-12-20T08:38:41;3.22;;;2.10;;
27889;SDS011;15238;49.082;9.102;2023-12-20T08:40:42;2.03;;;1.48;;
27889;SDS011;15238;49.082;9.102;2023-12-20T08:42:43;2.92;;;1.92;;
27889;SDS011;15238;49.082;9.102;2023-12-20T08:44:43;2.90;;;1.80;;
27889;SDS011;15238;49.082;9.102;2023-12-20T08:46:44;3.97;;;1.92;;
27889;SDS011;15238;49.082;9.102;2023-12-20T08:48:44;3.53;;;1.70;;
27889;SDS011;15238;49.082;9.102;2023-12-20T08:50:45;6.28;;;1.75;;
27889;SDS011;15238;49.082;9.102;2023-12-20T08:52:47;4.18;;;1.80;;
27889;SDS011;15238;49.082;9.102;2023-12-20T08:54:47;4.13;;;1.65;;
27889;SDS011;15238;49.082;9.102;2023-12-20T08:56:48;1.80;;;1.15;;
27889;SDS011;15238;49.082;9.102;2023-12-20T08:58:49;5.47;;;1.77;;
27889;SDS011;15238;49.082;9.102;2023-12-20T09:00:49;4.53;;;1.42;;
27889;SDS011;15238;49.082;9.102;2023-12-20T09:02:50;2.08;;;1.50;;
27889;SDS011;15238;49.082;9.102;2023-12-20T09:04:50;2.50;;;1.50;;
27889;SDS011;15238;49.082;9.102;2023-12-20T09:06:51;3.30;;;1.38;;
27889;SDS011;15238;49.082;9.102;2023-12-20T09:08:51;2.60;;;1.45;;
27889;SDS011;15238;49.082;9.102;2023-12-20T09:10:52;2.78;;;1.48;;
27889;SDS011;15238;49.082;9.102;2023-12-20T09:12:52;4.85;;;1.60;;
27889;SDS011;15238;49.082;9.102;2023-12-20T09:14:57;3.35;;;1.48;;
27889;SDS011;15238;49.082;9.102;2023-12-20T09:16:57;2.40;;;1.65;;
27889;SDS011;15238;49.082;9.102;2023-12-20T09:18:59;1.58;;;1.40;;
27889;SDS011;15238;49.082;9.102;2023-12-20T09:20:59;3.28;;;1.85;;
27889;SDS011;15238;49.082;9.102;2023-12-20T09:23:00;2.88;;;1.98;;
27889;SDS011;15238;49.082;9.102;2023-12-20T09:25:00;3.67;;;1.38;;
27889;SDS011;15238;49.082;9.102;2023-12-20T09:27:02;2.17;;;1.77;;
27889;SDS011;15238;49.082;9.102;2023-12-20T09:29:02;3.80;;;1.60;;
27889;SDS011;15238;49.082;9.102;2023-12-20T09:31:03;2.40;;;1.50;;
27889;SDS011;15238;49.082;9.102;2023-12-20T09:33:05;4.18;;;1.58;;
27889;SDS011;15238;49.082;9.102;2023-12-20T09:35:07;5.43;;;1.40;;
27889;SDS011;15238;49.082;9.102;2023-12-20T09:37:08;3.15;;;1.55;;
27889;SDS011;15238;49.082;9.102;2023-12-20T09:39:09;5.57;;;1.40;;
27889;SDS011;15238;49.082;9.102;2023-12-20T09:41:09;1.70;;;0.88;;
27889;SDS011;15238;49.082;9.102;2023-12-20T09:43:10;3.20;;;1.52;;
27889;SDS011;15238;49.082;9.102;2023-12-20T09:45:13;4.68;;;1.42;;
27889;SDS011;15238;49.082;9.102;2023-12-20T09:47:16;3.00;;;1.40;;
27889;SDS011;15238;49.082;9.102;2023-12-20T09:49:23;5.25;;;1.17;;
27889;SDS011;15238;49.082;9.102;2023-12-20T09:51:23;5.10;;;1.35;;
27889;SDS011;15238;49.082;9.102;2023-12-20T09:53:25;4.15;;;0.93;;
27889;SDS011;15238;49.082;9.102;2023-12-20T09:55:29;5.60;;;1.05;;
27889;SDS011;15238;49.082;9.102;2023-12-20T09:57:32;2.53;;;1.00;;
27889;SDS011;15238;49.082;9.102;2023-12-20T09:59:32;2.55;;;1.20;;
27889;SDS011;15238;49.082;9.102;2023-12-20T10:01:33;2.80;;;1.05;;
27889;SDS011;15238;49.082;9.102;2023-12-20T10:03:35;3.97;;;1.08;;
27889;SDS011;15238;49.082;9.102;2023-12-20T10:05:40;3.58;;;1.10;;
27889;SDS011;15238;49.082;9.102;2023-12-20T10:07:43;4.30;;;1.00;;
27889;SDS011;15238;49.082;9.102;2023-12-20T10:09:44;5.43;;;1.33;;
27889;SDS011;15238;49.082;9.102;2023-12-20T10:11:46;4.32;;;1.42;;
27889;SDS011;15238;49.082;9.102;2023-12-20T10:13:47;5.88;;;1.10;;
27889;SDS011;15238;49.082;9.102;2023-12-20T10:15:49;4.43;;;1.10;;
27889;SDS011;15238;49.082;9.102;2023-12-20T10:17:49;8.02;;;1.10;;
27889;SDS011;15238;49.082;9.102;2023-12-20T10:19:50;5.90;;;0.80;;
27889;SDS011;15238;49.082;9.102;2023-12-20T10:21:50;6.50;;;1.13;;
27889;SDS011;15238;49.082;9.102;2023-12-20T10:23:53;3.05;;;0.85;;
27889;SDS011;15238;49.082;9.102;2023-12-20T10:25:58;3.60;;;1.02;;
27889;SDS011;15238;49.082;9.102;2023-12-20T10:28:15;2.80;;;0.70;;
27889;SDS011;15238;49.082;9.102;2023-12-20T10:30:18;5.55;;;1.02;;
27889;SDS011;15238;49.082;9.102;2023-12-20T10:32:23;6.53;;;1.20;;
27889;SDS011;15238;49.082;9.102;2023-12-20T10:34:24;30.42;;;1.33;;
27889;SDS011;15238;49.082;9.102;2023-12-20T10:36:26;4.82;;;1.27;;
27889;SDS011;15238;49.082;9.102;2023-12-20T10:38:27;2.85;;;0.68;;
27889;SDS011;15238;49.082;9.102;2023-12-20T10:40:30;5.93;;;0.88;;
27889;SDS011;15238;49.082;9.102;2023-12-20T10:42:34;5.57;;;1.30;;
27889;SDS011;15238;49.082;9.102;2023-12-20T10:44:36;6.68;;;0.85;;
27889;SDS011;15238;49.082;9.102;2023-12-20T10:46:36;3.22;;;0.80;;
27889;SDS011;15238;49.082;9.102;2023-12-20T10:48:39;7.00;;;0.98;;
27889;SDS011;15238;49.082;9.102;2023-12-20T10:50:40;8.20;;;1.75;;
27889;SDS011;15238;49.082;9.102;2023-12-20T10:52:42;7.72;;;1.02;;
27889;SDS011;15238;49.082;9.102;2023-12-20T10:54:44;6.65;;;1.02;;
27889;SDS011;15238;49.082;9.102;2023-12-20T10:56:45;5.00;;;1.08;;
27889;SDS011;15238;49.082;9.102;2023-12-20T10:58:46;5.38;;;0.90;;
27889;SDS011;15238;49.082;9.102;2023-12-20T11:00:48;2.85;;;0.82;;
27889;SDS011;15238;49.082;9.102;2023-12-20T11:02:59;2.70;;;0.73;;
27889;SDS011;15238;49.082;9.102;2023-12-20T11:05:10;4.32;;;0.88;;
27889;SDS011;15238;49.082;9.102;2023-12-20T11:07:33;5.60;;;0.90;;
27889;SDS011;15238;49.082;9.102;2023-12-20T11:09:40;5.43;;;0.80;;
27889;SDS011;15238;49.082;9.102;2023-12-20T11:14:12;4.00;;;0.70;;
27889;SDS011;15238;49.082;9.102;2023-12-20T11:18:19;3.47;;;0.93;;
27889;SDS011;15238;49.082;9.102;2023-12-20T11:20:20;7.70;;;1.20;;
27889;SDS011;15238;49.082;9.102;2023-12-20T11:22:32;4.32;;;1.05;;
27889;SDS011;15238;49.082;9.102;2023-12-20T11:24:34;2.45;;;0.52;;
27889;SDS011;15238;49.082;9.102;2023-12-20T11:26:37;4.63;;;1.50;;
27889;SDS011;15238;49.082;9.102;2023-12-20T11:28:46;4.72;;;0.90;;
27889;SDS011;15238;49.082;9.102;2023-12-20T11:30:47;3.58;;;1.17;;
27889;SDS011;15238;49.082;9.102;2023-12-20T11:32:55;5.75;;;2.20;;
27889;SDS011;15238;49.082;9.102;2023-12-20T11:37:08;2.50;;;0.82;;
27889;SDS011;15238;49.082;9.102;2023-12-20T11:39:09;5.40;;;1.13;;
27889;SDS011;15238;49.082;9.102;2023-12-20T11:41:10;2.90;;;0.80;;
27889;SDS011;15238;49.082;9.102;2023-12-20T11:43:11;3.47;;;1.02;;
27889;SDS011;15238;49.082;9.102;2023-12-20T11:45:15;2.30;;;0.65;;
27889;SDS011;15238;49.082;9.102;2023-12-20T11:47:19;3.63;;;0.93;;
27889;SDS011;15238;49.082;9.102;2023-12-20T11:49:22;4.25;;;1.08;;
27889;SDS011;15238;49.082;9.102;2023-12-20T11:51:23;6.82;;;1.17;;
27889;SDS011;15238;49.082;9.102;2023-12-20T11:53:24;5.68;;;1.38;;
27889;SDS011;15238;49.082;9.102;2023-12-20T11:55:25;13.90;;;1.60;;
27889;SDS011;15238;49.082;9.102;2023-12-20T11:57:25;3.42;;;1.00;;
27889;SDS011;15238;49.082;9.102;2023-12-20T11:59:26;4.57;;;0.90;;
27889;SDS011;15238;49.082;9.102;2023-12-20T12:01:26;6.35;;;2.15;;
27889;SDS011;15238;49.082;9.102;2023-12-20T12:03:27;4.88;;;1.02;;
27889;SDS011;15238;49.082;9.102;2023-12-20T12:05:27;6.07;;;0.93;;
27889;SDS011;15238;49.082;9.102;2023-12-20T12:07:28;4.28;;;1.10;;
27889;SDS011;15238;49.082;9.102;2023-12-20T12:09:28;5.57;;;1.27;;
27889;SDS011;15238;49.082;9.102;2023-12-20T12:11:29;5.90;;;1.85;;
27889;SDS011;15238;49.082;9.102;2023-12-20T12:13:29;3.03;;;1.25;;
27889;SDS011;15238;49.082;9.102;2023-12-20T12:15:30;6.03;;;1.20;;
27889;SDS011;15238;49.082;9.102;2023-12-20T12:17:30;5.35;;;1.20;;